Time;durP1;ratioP1;P1;durP2;ratioP2;P2;SDS_P1;SDS_P2;PMS_P1;PMS_P2;Temp;Humidity;BMP_temperature;BMP_pressure;BME280_temperature;BME280_humidity;BME280_pressure;Samples;Min_cycle;Max_cycle;Signal;HPM_P1;HPM_P2
2022/07/21 00:01:05;;;;;;;11.07;8.40;;;19.60;99.90;;;;;;5095745;28;20536;-69
2022/07/21 00:03:31;;;;;;;12.10;9.13;;;19.50;99.90;;;;;;5096279;28;20173;-70
2022/07/21 00:05:56;;;;;;;11.70;8.38;;;19.40;99.90;;;;;;5096017;28;20653;-70
2022/07/21 00:08:22;;;;;;;9.50;7.97;;;19.40;99.90;;;;;;5095912;28;20181;-70
2022/07/21 00:10:48;;;;;;;11.65;8.70;;;19.50;99.90;;;;;;5096254;28;20660;-70
2022/07/21 00:13:14;;;;;;;11.85;9.88;;;19.30;99.90;;;;;;5095756;28;20181;-70
2022/07/21 00:15:40;;;;;;;12.25;9.25;;;19.00;99.90;;;;;;5094396;28;20260;-70
2022/07/21 00:18:06;;;;;;;12.73;9.95;;;18.80;99.90;;;;;;5095270;28;20188;-70
2022/07/21 00:20:32;;;;;;;16.15;10.65;;;18.70;99.90;;;;;;5095623;28;20646;-70
2022/07/21 00:22:58;;;;;;;14.88;11.57;;;18.70;99.90;;;;;;5095609;28;20246;-70
2022/07/21 00:25:24;;;;;;;14.70;11.93;;;18.60;99.90;;;;;;5095875;28;20169;-70
2022/07/21 00:27:50;;;;;;;15.65;11.90;;;18.50;99.90;;;;;;5094194;28;20178;-69
2022/07/21 00:30:17;;;;;;;16.40;12.43;;;18.40;99.90;;;;;;5095418;28;20181;-75
2022/07/21 00:32:43;;;;;;;16.08;12.85;;;18.50;99.90;;;;;;5095035;28;20197;-69
2022/07/21 00:35:11;;;;;;;20.27;14.25;;;18.50;99.90;;;;;;5095219;28;20608;-71
2022/07/21 00:37:37;;;;;;;16.92;13.63;;;18.40;99.90;;;;;;5095817;28;20196;-69
2022/07/21 00:40:05;;;;;;;20.75;14.90;;;18.40;99.90;;;;;;5095231;28;20169;-69
2022/07/21 00:42:32;;;;;;;17.15;14.50;;;18.40;99.90;;;;;;5095186;28;20185;-70
2022/07/21 00:44:58;;;;;;;21.67;14.88;;;18.40;99.90;;;;;;5095233;28;20177;-69
2022/07/21 00:47:27;;;;;;;17.58;14.15;;;18.40;99.90;;;;;;5095002;28;20261;-70
2022/07/21 00:49:54;;;;;;;19.88;13.85;;;18.40;99.90;;;;;;5095304;28;20181;-69
2022/07/21 00:52:20;;;;;;;18.90;14.55;;;18.50;99.90;;;;;;5095128;28;20544;-69
2022/07/21 00:54:46;;;;;;;17.30;14.68;;;18.50;99.90;;;;;;5114594;28;20241;-70
2022/07/21 00:57:13;;;;;;;21.67;15.73;;;18.50;99.90;;;;;;5115199;28;20197;-70
2022/07/21 00:59:40;;;;;;;21.55;16.00;;;18.60;99.90;;;;;;5115248;28;20184;-69
2022/07/21 01:02:07;;;;;;;22.30;16.13;;;18.50;99.90;;;;;;5113711;28;20207;-69
2022/07/21 01:04:33;;;;;;;25.77;17.75;;;18.50;99.90;;;;;;5115222;28;20763;-69
2022/07/21 01:07:02;;;;;;;22.63;17.30;;;18.60;99.90;;;;;;5115790;28;20514;-70
2022/07/21 01:09:28;;;;;;;23.20;18.08;;;18.60;99.90;;;;;;5115085;28;20203;-69
2022/07/21 01:11:54;;;;;;;25.30;18.98;;;18.60;99.90;;;;;;5115428;28;20265;-71
2022/07/21 01:14:20;;;;;;;24.23;18.05;;;18.70;99.90;;;;;;5115263;28;20576;-69
2022/07/21 01:16:45;;;;;;;24.00;17.08;;;18.70;99.90;;;;;;5114767;28;20337;-70
2022/07/21 01:19:11;;;;;;;23.50;17.40;;;18.90;99.90;;;;;;5113604;28;20184;-69
2022/07/21 01:21:40;;;;;;;21.58;16.15;;;18.90;99.90;;;;;;5115035;28;20552;-69
2022/07/21 01:24:07;;;;;;;20.58;16.15;;;18.90;99.90;;;;;;5099522;28;20181;-69
2022/07/21 01:26:50;;;;;;;21.35;16.17;;;18.90;99.90;;;;;;5094399;28;20226;-69
2022/07/21 01:29:17;;;;;;;21.80;16.15;;;18.80;99.90;;;;;;5094326;28;20181;-69
2022/07/21 01:31:45;;;;;;;21.45;15.55;;;18.60;99.90;;;;;;5092661;28;20205;-69
2022/07/21 01:34:12;;;;;;;19.45;15.18;;;18.50;99.90;;;;;;5093044;28;20185;-69
2022/07/21 01:36:38;;;;;;;20.23;15.32;;;18.50;99.90;;;;;;5094705;28;20192;-69
2022/07/21 01:41:49;;;;;;;17.48;14.75;;;18.50;99.90;;;;;;5094085;28;20207;-69
2022/07/21 01:44:16;;;;;;;21.67;14.93;;;18.50;99.90;;;;;;5094108;28;20169;-69
2022/07/21 01:46:45;;;;;;;24.08;16.00;;;18.50;99.90;;;;;;5094098;28;20593;-69
2022/07/21 01:49:12;;;;;;;21.42;16.48;;;18.40;99.90;;;;;;5093936;28;20683;-69
2022/07/21 01:51:38;;;;;;;23.77;18.05;;;18.50;99.90;;;;;;5093945;28;20192;-69
2022/07/21 01:54:06;;;;;;;22.60;17.73;;;18.50;99.90;;;;;;5092563;28;20549;-69
2022/07/21 01:56:33;;;;;;;28.50;19.55;;;18.50;99.90;;;;;;5093856;28;20253;-69
2022/07/21 01:58:59;;;;;;;24.83;19.10;;;18.50;99.90;;;;;;5093819;28;20537;-69
2022/07/21 02:01:27;;;;;;;22.13;17.58;;;18.50;99.90;;;;;;5093669;28;20193;-68
2022/07/21 02:03:54;;;;;;;23.70;16.77;;;18.40;99.90;;;;;;5094196;28;20165;-69
2022/07/21 02:06:20;;;;;;;23.67;17.10;;;18.30;99.90;;;;;;5093794;28;20646;-69
2022/07/21 02:08:46;;;;;;;21.10;16.40;;;18.20;99.90;;;;;;5094052;28;20185;-69
2022/07/21 02:11:13;;;;;;;22.98;16.70;;;18.20;99.90;;;;;;5093772;28;20568;-69
2022/07/21 02:13:39;;;;;;;24.50;17.25;;;18.10;99.90;;;;;;5094311;28;20633;-69
2022/07/21 02:16:05;;;;;;;22.90;16.23;;;18.10;99.90;;;;;;5093730;28;20314;-69
2022/07/21 02:18:31;;;;;;;22.70;17.20;;;18.10;99.90;;;;;;5093312;28;20622;-69
2022/07/21 02:20:57;;;;;;;21.98;16.25;;;18.10;99.90;;;;;;5093908;28;20165;-69
2022/07/21 02:23:24;;;;;;;24.60;17.60;;;18.10;99.90;;;;;;5098058;28;20183;-69
2022/07/21 02:25:52;;;;;;;23.83;16.30;;;18.20;99.90;;;;;;5098052;28;20700;-69
2022/07/21 02:28:21;;;;;;;20.38;15.73;;;18.10;99.90;;;;;;5097980;28;20261;-69
2022/07/21 02:30:47;;;;;;;24.50;15.52;;;17.90;99.90;;;;;;5096502;28;20267;-69
2022/07/21 02:33:13;;;;;;;18.63;13.15;;;17.90;99.90;;;;;;5097475;28;20310;-69
2022/07/21 02:35:40;;;;;;;23.50;14.85;;;18.00;99.90;;;;;;5097629;28;20161;-69
2022/07/21 02:38:07;;;;;;;21.80;14.57;;;18.00;99.90;;;;;;5097785;28;20180;-69
2022/07/21 02:40:33;;;;;;;20.48;14.80;;;17.90;99.90;;;;;;5097645;28;20206;-69
2022/07/21 02:42:59;;;;;;;22.90;14.90;;;17.80;99.90;;;;;;5097430;28;20208;-69
2022/07/21 02:45:25;;;;;;;18.63;13.75;;;17.80;99.90;;;;;;5097608;28;20230;-70
2022/07/21 02:47:55;;;;;;;18.00;14.13;;;17.70;99.90;;;;;;5095915;28;20538;-68
2022/07/21 02:50:27;;;;;;;22.15;14.68;;;17.60;99.90;;;;;;5097328;28;20192;-69
2022/07/21 02:52:58;;;;;;;21.05;13.25;;;17.50;99.90;;;;;;5096185;28;20201;-69
2022/07/21 02:55:25;;;;;;;18.92;13.02;;;17.50;99.90;;;;;;5097410;28;20566;-69
2022/07/21 02:58:06;;;;;;;19.52;12.45;;;17.50;99.90;;;;;;5097180;28;20295;-69
2022/07/21 03:00:33;;;;;;;16.58;11.52;;;17.40;99.90;;;;;;5097149;28;20176;-69
2022/07/21 03:02:59;;;;;;;18.10;11.95;;;17.30;99.90;;;;;;5096802;28;20288;-69
2022/07/21 03:05:24;;;;;;;16.90;12.32;;;17.30;99.90;;;;;;5097769;28;20248;-69
2022/07/21 03:07:50;;;;;;;18.95;13.05;;;17.40;99.90;;;;;;5097032;28;20176;-69
2022/07/21 03:10:16;;;;;;;16.70;12.65;;;17.30;99.90;;;;;;5097052;28;20176;-69
2022/07/21 03:12:41;;;;;;;18.98;12.80;;;17.30;99.90;;;;;;5096960;28;20193;-69
2022/07/21 03:15:08;;;;;;;22.20;12.95;;;17.30;99.90;;;;;;5096826;28;20256;-69
2022/07/21 03:17:34;;;;;;;19.27;12.48;;;17.50;99.90;;;;;;5097024;28;20215;-69
2022/07/21 03:19:59;;;;;;;17.38;12.70;;;17.60;99.90;;;;;;5095633;28;20219;-70
2022/07/21 03:22:25;;;;;;;44.88;13.13;;;17.70;99.90;;;;;;5096859;28;20665;-69
2022/07/21 03:24:51;;;;;;;16.90;12.20;;;17.70;99.90;;;;;;5117667;28;20528;-70
2022/07/21 03:27:17;;;;;;;16.52;12.40;;;17.50;99.90;;;;;;5117655;28;20535;-67
2022/07/21 03:29:44;;;;;;;16.88;11.88;;;17.60;99.90;;;;;;5116998;28;20172;-67
2022/07/21 03:32:09;;;;;;;17.17;11.27;;;17.50;99.90;;;;;;5115472;28;20200;-67
2022/07/21 03:34:35;;;;;;;18.58;12.07;;;17.50;99.90;;;;;;5116218;28;20173;-68
2022/07/21 03:37:01;;;;;;;19.52;11.23;;;17.60;99.90;;;;;;5115589;28;20229;-67
2022/07/21 03:39:27;;;;;;;15.65;12.88;;;17.60;99.90;;;;;;5117119;28;20187;-67
2022/07/21 03:41:52;;;;;;;19.38;11.93;;;17.60;99.90;;;;;;5115556;28;20192;-67
2022/07/21 03:44:18;;;;;;;15.80;11.73;;;17.60;99.90;;;;;;5117689;28;20170;-67
2022/07/21 03:46:44;;;;;;;17.48;12.00;;;17.60;99.90;;;;;;5116327;28;20208;-67
2022/07/21 03:49:10;;;;;;;15.20;11.73;;;17.60;99.90;;;;;;5116630;28;20518;-67
2022/07/21 03:51:35;;;;;;;17.42;11.75;;;17.70;99.90;;;;;;5116559;28;20215;-67
2022/07/21 03:54:02;;;;;;;15.70;10.43;;;17.60;99.90;;;;;;5116317;28;20181;-67
2022/07/21 03:56:28;;;;;;;13.73;10.43;;;17.70;99.90;;;;;;5116570;27;20287;-67
2022/07/21 03:58:54;;;;;;;13.77;9.77;;;17.80;99.90;;;;;;5116649;28;20556;-67
2022/07/21 04:01:20;;;;;;;16.55;10.15;;;17.70;99.90;;;;;;5116835;28;20275;-67
2022/07/21 04:03:45;;;;;;;12.85;9.57;;;17.60;99.90;;;;;;5116044;27;20169;-67
2022/07/21 04:06:11;;;;;;;15.18;9.35;;;17.70;99.90;;;;;;5116249;28;20173;-67
2022/07/21 04:08:38;;;;;;;11.98;8.93;;;17.50;99.90;;;;;;5116157;28;20208;-67
2022/07/21 04:11:04;;;;;;;13.85;8.82;;;17.50;99.90;;;;;;5114726;28;20180;-68
2022/07/21 04:13:30;;;;;;;11.73;9.40;;;17.50;99.90;;;;;;5116202;28;20172;-67
2022/07/21 04:15:56;;;;;;;13.80;8.85;;;17.50;99.90;;;;;;5116274;28;20721;-67
2022/07/21 04:18:22;;;;;;;11.55;8.27;;;17.60;99.90;;;;;;5115640;28;20233;-67
2022/07/21 04:20:47;;;;;;;12.27;8.07;;;17.60;99.90;;;;;;5116297;28;20568;-67
2022/07/21 04:23:13;;;;;;;11.75;8.85;;;17.60;99.90;;;;;;5115819;28;20210;-67
2022/07/21 04:25:39;;;;;;;11.88;8.88;;;17.50;99.90;;;;;;5116065;28;20183;-68
2022/07/21 04:28:07;;;;;;;10.27;8.60;;;17.50;99.90;;;;;;5116174;28;20243;-67
2022/07/21 04:30:33;;;;;;;13.68;9.02;;;17.70;99.90;;;;;;5116070;28;20323;-67
2022/07/21 04:32:59;;;;;;;15.93;9.75;;;17.80;99.90;;;;;;5115591;27;20223;-67
2022/07/21 04:35:24;;;;;;;14.07;9.18;;;17.90;99.90;;;;;;5115889;28;20165;-67
2022/07/21 04:37:51;;;;;;;10.52;8.27;;;18.00;99.90;;;;;;5115558;28;20611;-67
2022/07/21 04:40:17;;;;;;;11.23;9.15;;;17.90;99.90;;;;;;5115775;28;20172;-68
2022/07/21 04:42:43;;;;;;;14.00;8.80;;;17.70;99.90;;;;;;5115436;28;20192;-67
2022/07/21 04:45:12;;;;;;;11.52;8.40;;;17.70;99.90;;;;;;5114664;28;20157;-67
2022/07/21 04:47:53;;;;;;;12.05;8.63;;;17.60;99.90;;;;;;5115515;28;20614;-67
2022/07/21 04:50:21;;;;;;;11.18;8.05;;;17.50;99.90;;;;;;5115243;28;20173;-67
2022/07/21 04:52:47;;;;;;;10.43;8.10;;;17.60;99.90;;;;;;5115028;28;20356;-67
2022/07/21 04:55:13;;;;;;;12.18;8.75;;;17.70;99.90;;;;;;5115270;28;20644;-67
2022/07/21 04:57:41;;;;;;;11.48;9.13;;;17.60;99.90;;;;;;5114890;28;20200;-67
2022/07/21 05:00:10;;;;;;;11.75;9.15;;;17.60;99.90;;;;;;5115172;28;20614;-68
2022/07/21 05:02:37;;;;;;;12.90;9.15;;;17.70;99.90;;;;;;5113229;28;20344;-67
2022/07/21 05:05:03;;;;;;;12.45;9.63;;;17.70;99.90;;;;;;5114982;28;20164;-67
2022/07/21 05:07:29;;;;;;;12.05;9.40;;;17.80;99.90;;;;;;5114885;28;20180;-67
2022/07/21 05:09:57;;;;;;;13.38;9.85;;;17.90;99.90;;;;;;5113552;28;20603;-67
2022/07/21 05:12:22;;;;;;;12.98;9.52;;;17.80;99.90;;;;;;5114733;28;20275;-67
2022/07/21 05:14:48;;;;;;;13.38;10.75;;;17.80;99.90;;;;;;5115378;28;20676;-67
2022/07/21 05:17:14;;;;;;;14.68;11.30;;;17.90;99.90;;;;;;5115356;27;20200;-67
2022/07/21 05:19:41;;;;;;;14.50;11.13;;;17.70;99.90;;;;;;5113601;28;20185;-67
2022/07/21 05:22:07;;;;;;;16.35;12.55;;;17.80;99.90;;;;;;5114859;28;20192;-67
2022/07/21 05:24:32;;;;;;;15.55;12.45;;;17.90;99.90;;;;;;5113496;28;20523;-67
2022/07/21 05:26:58;;;;;;;15.80;11.77;;;17.90;99.90;;;;;;5115287;28;20153;-67
2022/07/21 05:29:24;;;;;;;18.83;13.45;;;18.00;99.90;;;;;;5114929;28;20169;-67
2022/07/21 05:31:50;;;;;;;20.45;14.82;;;18.00;99.90;;;;;;5114801;28;20192;-67
2022/07/21 05:34:15;;;;;;;20.77;15.90;;;18.10;99.90;;;;;;5114148;28;20258;-67
2022/07/21 05:36:41;;;;;;;19.23;14.18;;;18.20;99.90;;;;;;5114995;28;20192;-67
2022/07/21 05:39:07;;;;;;;19.98;15.20;;;18.20;99.90;;;;;;5114717;28;20236;-67
2022/07/21 05:41:33;;;;;;;21.85;16.60;;;18.20;99.90;;;;;;5114215;28;20196;-67
2022/07/21 05:43:58;;;;;;;23.50;16.73;;;18.20;99.90;;;;;;5114304;28;20180;-67
2022/07/21 05:46:24;;;;;;;22.73;16.90;;;18.10;99.90;;;;;;5114323;28;20176;-67
2022/07/21 05:48:50;;;;;;;23.63;17.73;;;18.00;99.90;;;;;;5114156;28;20509;-67
2022/07/21 05:51:15;;;;;;;26.02;18.98;;;18.00;99.90;;;;;;5114807;28;20251;-67
2022/07/21 05:53:41;;;;;;;27.17;18.63;;;18.10;99.90;;;;;;5114091;28;20514;-67
2022/07/21 05:56:07;;;;;;;23.65;18.10;;;18.10;99.90;;;;;;5113758;28;20204;-67
2022/07/21 05:58:36;;;;;;;28.75;21.50;;;18.20;99.90;;;;;;5114142;28;20173;-67
2022/07/21 06:01:08;;;;;;;30.27;22.40;;;18.30;99.90;;;;;;5114826;28;20153;-67
2022/07/21 06:03:45;;;;;;;29.20;20.98;;;18.30;99.90;;;;;;5115031;28;20153;-67
2022/07/21 06:06:13;;;;;;;30.85;22.58;;;18.50;99.90;;;;;;5114938;28;20184;-67
2022/07/21 06:08:40;;;;;;;31.17;23.02;;;18.60;99.90;;;;;;5113193;28;20184;-67
2022/07/21 06:11:07;;;;;;;37.33;24.90;;;18.70;99.90;;;;;;5114482;28;20160;-67
2022/07/21 06:13:33;;;;;;;34.17;25.40;;;18.80;99.90;;;;;;5113069;28;20181;-67
2022/07/21 06:15:58;;;;;;;34.35;24.98;;;18.80;99.90;;;;;;5114603;28;20164;-67
2022/07/21 06:18:24;;;;;;;34.40;23.70;;;18.90;99.90;;;;;;5113800;28;20199;-67
2022/07/21 06:20:51;;;;;;;29.52;22.85;;;18.90;99.90;;;;;;5114129;28;20562;-67
2022/07/21 06:23:17;;;;;;;34.08;25.13;;;18.80;99.90;;;;;;5114106;28;20203;-67
2022/07/21 06:25:44;;;;;;;32.95;24.27;;;18.80;99.90;;;;;;5114403;28;20243;-66
2022/07/21 06:28:10;;;;;;;31.65;23.92;;;18.70;99.90;;;;;;5115044;28;20251;-67
2022/07/21 06:30:35;;;;;;;30.83;23.42;;;18.70;99.90;;;;;;5114147;28;20619;-67
2022/07/21 06:33:01;;;;;;;27.80;22.10;;;18.60;99.90;;;;;;5115279;28;20222;-67
2022/07/21 06:35:27;;;;;;;24.40;20.67;;;18.60;99.90;;;;;;5115119;28;20169;-67
2022/07/21 06:37:53;;;;;;;26.95;21.65;;;18.60;99.90;;;;;;5114454;28;20220;-67
2022/07/21 06:40:18;;;;;;;24.88;20.15;;;18.70;99.90;;;;;;5114402;28;20164;-67
2022/07/21 06:42:44;;;;;;;25.80;20.92;;;18.70;99.90;;;;;;5118311;28;20188;-68
2022/07/21 06:45:10;;;;;;;27.35;20.85;;;18.70;99.90;;;;;;5123769;28;20186;-67
2022/07/21 06:47:36;;;;;;;30.20;19.80;;;18.70;99.90;;;;;;5114330;28;20176;-67
2022/07/21 06:50:03;;;;;;;23.33;19.98;;;18.70;99.90;;;;;;5114570;28;20165;-67
2022/07/21 06:52:29;;;;;;;22.42;19.67;;;18.70;99.90;;;;;;5114046;28;20218;-67
2022/07/21 06:54:55;;;;;;;21.73;18.35;;;18.60;99.90;;;;;;5114738;28;20214;-67
2022/07/21 06:57:21;;;;;;;21.77;18.45;;;18.70;99.90;;;;;;5114196;28;20200;-68
2022/07/21 06:59:47;;;;;;;21.73;17.35;;;18.70;99.90;;;;;;5115062;28;20175;-67
2022/07/21 07:02:13;;;;;;;21.00;17.70;;;18.70;99.90;;;;;;5114700;28;20189;-67
2022/07/21 07:04:38;;;;;;;23.48;18.10;;;18.90;99.90;;;;;;5113989;28;20596;-67
2022/07/21 07:07:04;;;;;;;20.10;16.92;;;18.90;99.90;;;;;;5114193;28;20165;-67
2022/07/21 07:09:30;;;;;;;26.27;18.00;;;18.90;99.90;;;;;;5116874;28;20249;-67
2022/07/21 07:12:03;;;;;;;21.33;16.98;;;19.00;99.90;;;;;;5117653;28;20200;-67
2022/07/21 07:14:30;;;;;;;21.67;16.77;;;19.00;99.90;;;;;;5117567;28;20157;-67
2022/07/21 07:16:56;;;;;;;21.17;17.05;;;19.20;99.90;;;;;;5115822;28;20684;-67
2022/07/21 07:19:22;;;;;;;22.42;18.50;;;19.40;99.90;;;;;;5116867;28;20189;-67
2022/07/21 07:21:48;;;;;;;23.27;17.67;;;19.30;99.90;;;;;;5117130;28;20188;-67
2022/07/21 07:24:14;;;;;;;19.88;16.80;;;19.30;99.90;;;;;;5117134;28;20176;-67
2022/07/21 07:26:40;;;;;;;20.77;17.40;;;19.50;99.90;;;;;;5117112;28;20176;-67
2022/07/21 07:29:06;;;;;;;20.42;16.38;;;19.70;99.90;;;;;;5117292;28;20165;-67
2022/07/21 07:31:32;;;;;;;19.48;16.08;;;19.90;99.90;;;;;;5117158;28;20192;-67
2022/07/21 07:33:58;;;;;;;17.98;15.48;;;19.90;99.90;;;;;;5116545;28;20177;-67
2022/07/21 07:36:24;;;;;;;17.10;15.07;;;20.10;99.90;;;;;;5116899;28;20193;-67
2022/07/21 07:38:52;;;;;;;19.38;14.40;;;20.20;99.90;;;;;;5117020;28;20157;-67
2022/07/21 07:41:19;;;;;;;15.50;13.80;;;20.30;99.90;;;;;;5116683;28;20563;-67
2022/07/21 07:43:45;;;;;;;17.05;12.73;;;20.20;99.90;;;;;;5116907;28;20172;-67
2022/07/21 07:46:12;;;;;;;15.07;12.43;;;20.10;99.90;;;;;;5116611;28;20221;-67
2022/07/21 07:48:40;;;;;;;13.63;12.13;;;19.90;99.90;;;;;;5115011;28;20180;-67
2022/07/21 07:51:06;;;;;;;15.65;12.18;;;19.80;99.90;;;;;;5116840;28;20245;-67
2022/07/21 07:53:32;;;;;;;16.33;12.25;;;19.70;99.90;;;;;;5116483;28;20187;-67
2022/07/21 07:55:58;;;;;;;13.43;11.60;;;19.50;99.90;;;;;;5116292;28;20541;-67
2022/07/21 07:58:24;;;;;;;15.13;11.00;;;19.40;99.90;;;;;;5116384;28;20173;-67
2022/07/21 08:00:50;;;;;;;12.27;10.88;;;19.30;99.90;;;;;;5116531;27;20161;-67
2022/07/21 08:03:16;;;;;;;14.15;12.55;;;19.30;99.90;;;;;;5115898;28;20254;-67
2022/07/21 08:05:42;;;;;;;13.25;11.52;;;19.30;99.90;;;;;;5116167;28;20171;-67
2022/07/21 08:08:07;;;;;;;14.57;11.77;;;19.30;99.90;;;;;;5116121;28;20545;-67
2022/07/21 08:10:33;;;;;;;15.02;12.18;;;19.30;99.90;;;;;;5116080;28;20523;-67
2022/07/21 08:12:59;;;;;;;13.27;11.88;;;19.30;99.90;;;;;;5114591;28;20196;-67
2022/07/21 08:15:25;;;;;;;16.05;12.75;;;19.30;99.90;;;;;;5114744;28;20200;-67
2022/07/21 08:17:51;;;;;;;17.25;12.77;;;19.30;99.90;;;;;;5115459;28;20668;-68
2022/07/21 08:20:17;;;;;;;15.80;11.75;;;19.40;99.90;;;;;;5114404;28;20253;-67
2022/07/21 08:22:43;;;;;;;13.57;12.18;;;19.50;99.90;;;;;;5115857;28;20624;-68
2022/07/21 08:25:09;;;;;;;13.32;11.13;;;19.60;99.90;;;;;;5115874;27;20192;-68
2022/07/21 08:27:35;;;;;;;14.55;11.50;;;19.80;99.90;;;;;;5116073;28;20529;-68
2022/07/21 08:30:01;;;;;;;10.85;9.73;;;19.90;99.90;;;;;;5114371;28;20184;-67
2022/07/21 08:32:26;;;;;;;12.45;10.25;;;19.90;99.90;;;;;;5115575;28;20196;-67
2022/07/21 08:34:52;;;;;;;10.45;8.93;;;20.00;99.90;;;;;;5115359;28;20255;-68
2022/07/21 08:37:21;;;;;;;12.38;9.45;;;20.00;99.90;;;;;;5115467;28;20269;-68
2022/07/21 08:39:47;;;;;;;12.13;9.23;;;20.10;99.90;;;;;;5115552;28;20179;-68
2022/07/21 08:42:14;;;;;;;9.77;8.00;;;20.20;99.90;;;;;;5115363;28;20185;-68
2022/07/21 08:44:40;;;;;;;10.45;8.35;;;20.30;99.90;;;;;;5115375;28;20165;-68
2022/07/21 08:47:06;;;;;;;8.93;7.82;;;20.50;99.90;;;;;;5115837;28;20536;-68
2022/07/21 08:49:36;;;;;;;11.63;8.27;;;20.60;99.90;;;;;;5115156;28;20176;-67
2022/07/21 08:52:05;;;;;;;12.57;8.13;;;20.70;99.90;;;;;;5115112;28;20241;-67
2022/07/21 08:54:32;;;;;;;9.25;7.38;;;20.70;99.90;;;;;;5113818;28;20667;-68
2022/07/21 08:56:58;;;;;;;8.98;7.30;;;20.80;99.90;;;;;;5115065;28;20235;-68
2022/07/21 08:59:24;;;;;;;11.75;7.93;;;20.90;99.90;;;;;;5115089;28;20195;-68
2022/07/21 09:01:49;;;;;;;10.43;7.15;;;20.90;99.90;;;;;;5115039;28;20265;-68
2022/07/21 09:04:26;;;;;;;9.68;7.13;;;20.90;99.90;;;;;;5114858;28;20176;-68
2022/07/21 09:06:58;;;;;;;10.05;7.20;;;21.00;99.90;;;;;;5113703;28;20671;-68
2022/07/21 09:09:26;;;;;;;10.20;7.32;;;21.20;99.90;;;;;;5113691;28;20180;-68
2022/07/21 09:11:54;;;;;;;11.05;7.05;;;21.40;99.90;;;;;;5115035;28;20196;-68
2022/07/21 09:14:22;;;;;;;9.38;7.25;;;21.60;99.90;;;;;;5115089;28;20188;-68
2022/07/21 09:16:50;;;;;;;10.57;6.93;;;21.70;99.90;;;;;;5114761;28;20196;-68
2022/07/21 09:19:22;;;;;;;8.38;6.00;;;21.70;99.90;;;;;;5113149;28;20184;-68
2022/07/21 09:21:50;;;;;;;8.38;6.60;;;21.70;99.90;;;;;;5113309;28;20185;-68
2022/07/21 09:24:26;;;;;;;8.15;6.25;;;21.60;99.90;;;;;;5113277;28;20275;-68
2022/07/21 09:27:03;;;;;;;11.65;7.38;;;21.60;99.90;;;;;;5115094;28;20157;-67
2022/07/21 09:29:35;;;;;;;8.40;6.38;;;21.60;99.90;;;;;;5114721;28;20180;-68
2022/07/21 09:32:21;;;;;;;7.20;5.68;;;21.60;99.90;;;;;;5113752;28;20273;-68
2022/07/21 09:34:56;;;;;;;8.73;6.28;;;21.60;99.90;;;;;;5114199;28;20536;-68
2022/07/21 09:37:23;;;;;;;9.05;6.30;;;21.60;99.90;;;;;;5114472;28;20184;-68
2022/07/21 09:39:56;;;;;;;9.18;6.22;;;21.80;99.90;;;;;;5114737;28;20174;-68
2022/07/21 09:42:31;;;;;;;7.13;6.03;;;22.00;99.90;;;;;;5114415;28;20249;-68
2022/07/21 09:45:04;;;;;;;7.35;6.07;;;22.00;99.90;;;;;;5114260;28;20224;-68
2022/07/21 09:47:32;;;;;;;6.95;5.78;;;22.10;99.90;;;;;;5114748;28;20165;-67
2022/07/21 09:49:59;;;;;;;7.97;5.65;;;22.10;99.90;;;;;;5114082;28;20179;-68
2022/07/21 09:52:39;;;;;;;7.78;5.97;;;22.10;99.90;;;;;;5114067;28;20196;-68
2022/07/21 09:55:07;;;;;;;8.25;5.70;;;22.10;99.90;;;;;;5114209;28;20548;-68
2022/07/21 09:57:33;;;;;;;9.27;6.00;;;22.00;99.90;;;;;;5114101;28;20718;-67
2022/07/21 09:59:59;;;;;;;6.93;5.65;;;21.90;99.90;;;;;;5114058;28;20176;-67
2022/07/21 10:02:30;;;;;;;9.50;4.97;;;22.00;99.90;;;;;;5114723;28;20224;-67
2022/07/21 10:04:59;;;;;;;6.47;5.18;;;22.00;99.90;;;;;;5113822;27;20175;-68
2022/07/21 10:07:27;;;;;;;7.82;5.07;;;21.90;99.90;;;;;;5114006;28;20168;-68
2022/07/21 10:09:53;;;;;;;6.82;5.30;;;21.80;99.90;;;;;;5114281;28;20180;-67
2022/07/21 10:12:20;;;;;;;9.93;5.55;;;21.80;99.90;;;;;;5113831;28;20192;-67
2022/07/21 10:14:49;;;;;;;5.97;5.35;;;21.70;99.90;;;;;;5113886;28;20169;-67
2022/07/21 10:17:17;;;;;;;6.22;5.00;;;21.70;99.90;;;;;;5113788;28;20604;-68
2022/07/21 10:20:01;;;;;;;10.45;5.60;;;21.90;99.90;;;;;;5113849;28;20559;-67
2022/07/21 10:23:00;;;;;;;9.00;5.68;;;22.00;99.90;;;;;;5113785;28;20207;-68
2022/07/21 10:25:26;;;;;;;7.00;5.35;;;22.10;99.90;;;;;;5108088;28;20187;-67
2022/07/21 10:28:10;;;;;;;9.98;5.03;;;22.20;99.90;;;;;;5113721;28;20261;-68
2022/07/21 10:30:42;;;;;;;6.75;4.72;;;22.10;99.90;;;;;;5113990;28;20177;-67
2022/07/21 10:33:09;;;;;;;6.65;5.63;;;22.10;99.90;;;;;;5113412;28;20207;-68
2022/07/21 10:35:40;;;;;;;8.18;5.90;;;22.10;99.90;;;;;;5113707;28;20173;-68
2022/07/21 10:38:24;;;;;;;9.27;6.53;;;22.00;99.90;;;;;;5113916;28;20192;-68
2022/07/21 10:40:49;;;;;;;8.30;6.53;;;21.90;99.90;;;;;;5114188;28;20236;-68
2022/07/21 10:43:15;;;;;;;8.32;6.75;;;21.70;99.90;;;;;;5114307;28;20273;-68
2022/07/21 10:45:43;;;;;;;7.25;6.55;;;21.70;99.90;;;;;;5117755;28;20165;-68
2022/07/21 10:48:49;;;;;;;11.23;7.63;;;21.60;99.90;;;;;;5117706;28;20187;-68
2022/07/21 10:51:18;;;;;;;8.38;7.30;;;21.70;99.90;;;;;;5115978;27;20203;-68
2022/07/21 10:53:45;;;;;;;11.50;7.85;;;21.90;99.90;;;;;;5117503;28;20180;-68
2022/07/21 10:56:31;;;;;;;11.95;9.18;;;22.10;99.90;;;;;;5119007;28;20169;-71
2022/07/21 10:58:57;;;;;;;11.70;9.68;;;22.20;99.90;;;;;;5119974;28;20153;-68
2022/07/21 11:01:25;;;;;;;12.60;10.13;;;22.30;99.90;;;;;;5116234;28;20192;-67
2022/07/21 11:04:16;;;;;;;10.50;8.02;;;22.40;99.90;;;;;;5119392;28;20161;-68
2022/07/21 11:06:43;;;;;;;11.70;8.95;;;22.40;99.90;;;;;;5116014;28;20287;-68
2022/07/21 11:09:19;;;;;;;9.27;8.27;;;22.40;99.90;;;;;;5117265;28;20668;-68
2022/07/21 11:12:03;;;;;;;11.23;8.30;;;22.30;99.90;;;;;;5117619;28;20199;-68
2022/07/21 11:14:39;;;;;;;9.02;7.97;;;22.30;99.90;;;;;;5117069;28;20180;-68
2022/07/21 11:17:06;;;;;;;9.18;8.02;;;22.30;99.90;;;;;;5117326;28;20179;-68
2022/07/21 11:19:49;;;;;;;11.35;8.18;;;22.20;99.90;;;;;;5116765;28;20663;-68
2022/07/21 11:22:27;;;;;;;10.13;8.02;;;22.10;99.90;;;;;;5115629;28;20539;-68
2022/07/21 11:24:55;;;;;;;10.77;7.55;;;21.90;99.90;;;;;;5117270;27;20172;-68
2022/07/21 11:27:27;;;;;;;10.57;7.55;;;21.70;99.90;;;;;;5116880;28;20176;-68
2022/07/21 11:29:55;;;;;;;10.18;7.97;;;21.50;99.90;;;;;;5116871;28;20169;-68
2022/07/21 11:32:23;;;;;;;11.00;7.78;;;21.30;99.90;;;;;;5115425;28;20204;-68
2022/07/21 11:34:53;;;;;;;12.00;9.13;;;21.30;99.90;;;;;;5116606;28;20173;-68
2022/07/21 11:37:26;;;;;;;10.73;8.35;;;21.30;99.90;;;;;;5116722;28;20199;-68
2022/07/21 11:39:52;;;;;;;11.90;8.93;;;21.30;99.90;;;;;;5116954;28;20523;-68
2022/07/21 11:42:18;;;;;;;11.82;8.48;;;21.40;99.90;;;;;;5116544;27;20193;-68
2022/07/21 11:44:44;;;;;;;10.80;7.85;;;21.40;99.90;;;;;;5117120;28;20191;-68
2022/07/21 11:47:12;;;;;;;9.73;8.70;;;21.50;99.90;;;;;;5116509;28;20180;-68
2022/07/21 11:49:39;;;;;;;15.60;8.93;;;21.40;99.90;;;;;;5114986;28;20177;-68
2022/07/21 11:52:20;;;;;;;9.55;8.15;;;21.50;99.90;;;;;;5116404;28;20184;-68
2022/07/21 11:54:54;;;;;;;11.57;8.80;;;21.40;99.90;;;;;;5115753;28;20640;-68
2022/07/21 11:57:21;;;;;;;12.88;9.15;;;21.30;99.90;;;;;;5116560;28;20243;-68
2022/07/21 11:59:48;;;;;;;13.57;9.35;;;21.10;99.90;;;;;;5116855;28;20507;-68
2022/07/21 12:02:18;;;;;;;13.48;9.27;;;20.90;99.90;;;;;;5116399;28;20660;-68
2022/07/21 12:04:56;;;;;;;14.80;10.13;;;20.60;99.90;;;;;;5116236;28;20527;-68
2022/07/21 12:07:30;;;;;;;13.25;10.23;;;20.40;99.90;;;;;;5116158;28;20171;-68
2022/07/21 12:09:59;;;;;;;13.68;10.88;;;20.20;99.90;;;;;;5116135;28;20153;-68
2022/07/21 12:12:35;;;;;;;14.68;11.23;;;20.10;99.90;;;;;;5115983;28;20189;-68
2022/07/21 12:15:15;;;;;;;15.70;10.82;;;20.00;99.90;;;;;;5116091;28;20202;-68
2022/07/21 12:17:45;;;;;;;12.07;10.13;;;19.80;99.90;;;;;;5115879;28;20280;-68
2022/07/21 12:20:11;;;;;;;15.85;10.88;;;19.80;99.90;;;;;;5115709;28;20661;-67
2022/07/21 12:22:44;;;;;;;10.90;9.43;;;19.70;99.90;;;;;;5115797;28;20330;-68
2022/07/21 12:25:11;;;;;;;12.70;9.20;;;19.50;99.90;;;;;;5116089;28;20176;-67
2022/07/21 12:27:39;;;;;;;11.70;10.10;;;19.40;99.90;;;;;;5115827;27;20203;-67
2022/07/21 12:30:07;;;;;;;11.63;9.82;;;19.30;99.90;;;;;;5115755;28;20172;-67
2022/07/21 12:32:49;;;;;;;16.70;11.82;;;19.20;99.90;;;;;;5116191;28;20196;-67
2022/07/21 12:35:26;;;;;;;13.73;12.18;;;19.10;99.90;;;;;;5117077;28;20180;-67
2022/07/21 12:37:52;;;;;;;14.93;12.15;;;19.10;99.90;;;;;;5118102;28;20176;-68
2022/07/21 12:40:19;;;;;;;15.75;12.23;;;19.00;99.90;;;;;;5117526;28;20173;-68